This is the latest recevied weather packets stored in our database for station/object KB3KAV. If no packets are shown the sender has not sent any weather packets the latest 10 day(s).
| Time | Temp. | Humidity | Pressure | Rain* | Wind** | Luminosity | Snow |
|---|---|---|---|---|---|---|---|
| 1777922841 | 21.67° C | 36% | 1037.3 hPa | 0 mm | - | 636 W/m² | - |
| 1777922238 | 21.67° C | 35% | 1037.5 hPa | 0 mm | - | 648 W/m² | - |
| 1777921635 | 21.11° C | 35% | 1037.6 hPa | 0 mm | - | 670 W/m² | - |
| 1777921034 | 21.11° C | 37% | 1037.7 hPa | 0 mm | - | 693 W/m² | - |
| 1777920433 | 20.56° C | 36% | 1038 hPa | 0 mm | - | 697 W/m² | - |
| 1777919831 | 20° C | 37% | 1038 hPa | 0 mm | - | 723 W/m² | - |
| 1777919226 | 21.11° C | 36% | 1038.3 hPa | 0 mm | - | 761 W/m² | - |
| 1777918627 | 20° C | 37% | 1038.1 hPa | 0 mm | - | 363 W/m² | - |
| 1777918023 | 20.56° C | 37% | 1038 hPa | 0 mm | - | 730 W/m² | - |
| 1777917418 | 20° C | 39% | 1038.6 hPa | 0 mm | - | 727 W/m² | - |
| 1777916819 | 20° C | 38% | 1038.6 hPa | 0 mm | - | 694 W/m² | - |
| 1777916218 | 20° C | 38% | 1038.8 hPa | 0 mm | - | 699 W/m² | - |
| 1777915618 | 20° C | 38% | 1038.7 hPa | 0 mm | - | 720 W/m² | - |
| 1777915017 | 19.44° C | 40% | 1038.8 hPa | 0 mm | - | 678 W/m² | - |
| 1777914416 | 18.89° C | 39% | 1038.8 hPa | 0 mm | - | 696 W/m² | - |
| 1777913815 | 19.44° C | 37% | 1039 hPa | 0 mm | - | 710 W/m² | - |
| 1777913214 | 18.33° C | 39% | 1039.2 hPa | 0 mm | - | 704 W/m² | - |
| 1777912613 | 18.89° C | 38% | 1039.7 hPa | 0 mm | - | 714 W/m² | - |
| 1777912011 | 18.33° C | 39% | 1039.6 hPa | 0 mm | - | 665 W/m² | - |
| 1777911409 | 18.33° C | 39% | 1039.8 hPa | 0 mm | - | 671 W/m² | - |
| 1777910804 | 17.78° C | 37% | 1039.9 hPa | 0 mm | - | 639 W/m² | - |
| 1777910203 | 17.78° C | 39% | 1040 hPa | 0 mm | - | 640 W/m² | - |
| 1777909603 | 17.78° C | 38% | 1040.1 hPa | 0 mm | - | 668 W/m² | - |
| 1777908998 | 17.78° C | 38% | 1040.1 hPa | 0 mm | - | 640 W/m² | - |
| 1777908393 | 16.67° C | 38% | 1040.4 hPa | 0 mm | - | 619 W/m² | - |
* Rain latest hour (hover to see other rain measurements)
** Current wind speed in m/s (hover to see current wind gust speed)